Terminal Aerodrome Forecast
Issued by NWS Buffalo, NY

Home | Current Version | Previous Version | Text Only | Print | Product List | Glossary On
Versions: 1 2 3 4 5 6 7 8 9 10 11 12 13 14 15 16 17 18 19 20 21 22 23 24 25 26 27 28 29 30
891
FTUS41 KBUF 261231 AAA
TAFART
TAF AMD
KART 261231Z 2613/2712 07008KT P6SM -FZRA OVC050
      TEMPO 2613/2614 -SHRA
     FM261500 08007KT P6SM OVC025
     FM262300 13008KT P6SM OVC035
     FM270300 15010KT P6SM VCSH OVC030
     FM270500 15010KT P6SM -RA OVC020
     FM270800 16010KT 5SM -RA OVC020=

USA.gov is the U.S. government's official web portal to all federal, state and local government web resources and services.